Time;durP1;ratioP1;P1;durP2;ratioP2;P2;SDS_P1;SDS_P2;PMS_P1;PMS_P2;Temp;Humidity;BMP_temperature;BMP_pressure;BME280_temperature;BME280_humidity;BME280_pressure;Samples;Min_cycle;Max_cycle;Signal;HPM_P1;HPM_P2
2022/04/28 00:02:17;;;;;;;12.63;5.65;;;;;;;8.04;67.59;102674.38;4787086;29;20041;-72
2022/04/28 00:04:42;;;;;;;12.32;5.30;;;;;;;8.06;67.00;102677.78;4805595;29;20034;-72
2022/04/28 00:07:07;;;;;;;13.68;5.60;;;;;;;8.02;66.69;102675.53;4805823;29;20499;-70
2022/04/28 00:09:33;;;;;;;13.13;5.60;;;;;;;8.00;67.22;102675.69;4795609;29;20035;-71
2022/04/28 00:11:58;;;;;;;16.67;5.82;;;;;;;7.98;67.25;102681.25;4823280;29;20030;-73
2022/04/28 00:14:23;;;;;;;14.23;5.53;;;;;;;7.99;67.33;102679.44;4807372;29;20495;-71
2022/04/28 00:16:49;;;;;;;12.85;5.50;;;;;;;7.95;66.72;102684.28;4823193;29;20034;-71
2022/04/28 00:19:14;;;;;;;12.40;5.60;;;;;;;7.87;67.75;102675.34;4822560;29;20062;-72
2022/04/28 00:21:39;;;;;;;13.98;5.22;;;;;;;7.89;67.62;102682.22;4823697;29;20179;-72
2022/04/28 00:24:05;;;;;;;10.88;5.40;;;;;;;7.93;67.44;102683.59;4823183;29;20073;-70
2022/04/28 00:26:30;;;;;;;15.55;5.97;;;;;;;7.87;67.93;102681.56;4806197;29;20380;-70
2022/04/28 00:28:56;;;;;;;16.60;6.15;;;;;;;7.84;69.43;102684.59;4789076;29;20039;-73
2022/04/28 00:31:21;;;;;;;13.32;5.80;;;;;;;7.86;68.03;102684.41;4788840;29;20039;-69
2022/04/28 00:33:48;;;;;;;15.45;6.13;;;;;;;7.81;68.13;102677.66;4806339;29;20054;-72
2022/04/28 00:36:16;;;;;;;16.00;5.72;;;;;;;7.77;67.38;102681.66;4788944;29;20524;-71
2022/04/28 00:38:42;;;;;;;14.75;5.68;;;;;;;7.74;68.70;102679.31;4806264;29;20436;-71
2022/04/28 00:41:08;;;;;;;11.50;5.15;;;;;;;7.74;68.15;102673.91;4805006;29;20109;-70
2022/04/28 00:43:47;;;;;;;16.38;5.82;;;;;;;7.71;68.70;102684.19;4789172;29;20035;-73
2022/04/28 00:46:12;;;;;;;13.90;6.22;;;;;;;7.65;67.87;102676.75;4804383;29;20468;-72
2022/04/28 00:51:21;;;;;;;16.13;5.88;;;;;;;7.48;69.04;102671.25;4822601;29;20045;-71
2022/04/28 00:53:48;;;;;;;15.57;5.75;;;;;;;7.43;69.46;102674.44;4806922;29;20034;-73
2022/04/28 00:56:16;;;;;;;13.05;5.78;;;;;;;7.44;69.86;102675.28;4813801;29;20465;-70
2022/04/28 00:58:41;;;;;;;16.77;6.70;;;;;;;7.39;69.36;102673.06;4805098;29;20035;-69
2022/04/28 01:01:08;;;;;;;22.88;6.00;;;;;;;7.39;69.54;102678.44;4786502;29;20035;-71
2022/04/28 01:03:34;;;;;;;13.63;5.60;;;;;;;7.39;69.91;102662.28;4819579;29;20129;-71
2022/04/28 01:06:00;;;;;;;11.30;5.72;;;;;;;7.39;70.07;102670.38;4823071;29;20041;-71
2022/04/28 01:08:26;;;;;;;15.77;6.35;;;;;;;7.37;69.94;102671.53;4822236;29;20030;-73
2022/04/28 01:10:52;;;;;;;18.80;6.63;;;;;;;7.41;69.81;102672.91;4808471;29;20043;-72
2022/04/28 01:13:17;;;;;;;15.65;5.80;;;;;;;7.38;69.95;102673.22;4791937;29;20035;-70
2022/04/28 01:15:48;;;;;;;12.45;5.70;;;;;;;7.44;69.97;102677.97;4808726;29;20031;-72
2022/04/28 01:18:14;;;;;;;14.15;5.80;;;;;;;7.45;69.42;102682.34;4808107;29;20088;-69
2022/04/28 01:20:39;;;;;;;17.40;6.40;;;;;;;7.43;70.06;102676.28;4813128;29;20043;-71
2022/04/28 01:23:05;;;;;;;14.95;5.90;;;;;;;7.35;70.19;102676.22;4825989;29;20030;-71
2022/04/28 01:25:31;;;;;;;13.95;5.80;;;;;;;7.33;69.32;102678.25;4825664;29;20099;-70
2022/04/28 01:27:57;;;;;;;16.42;6.38;;;;;;;7.26;70.63;102681.56;4825930;29;20034;-73
2022/04/28 01:30:23;;;;;;;17.00;6.13;;;;;;;7.26;70.54;102678.00;4823407;29;20038;-71
2022/04/28 01:32:50;;;;;;;18.95;6.28;;;;;;;7.25;70.20;102677.19;4809015;29;20051;-71
2022/04/28 01:35:15;;;;;;;13.40;5.82;;;;;;;7.21;70.39;102680.34;4807830;29;20487;-70
2022/04/28 01:37:41;;;;;;;17.20;6.35;;;;;;;7.16;70.81;102672.75;4807714;29;20068;-70
2022/04/28 01:40:11;;;;;;;17.58;6.10;;;;;;;7.17;70.75;102687.03;4819462;29;20039;-71
2022/04/28 01:42:37;;;;;;;16.52;7.25;;;;;;;7.14;70.48;102677.44;4810562;29;20038;-71
2022/04/28 01:45:06;;;;;;;14.68;6.13;;;;;;;7.03;70.42;102691.16;4814927;29;20061;-72
2022/04/28 01:47:31;;;;;;;15.77;6.30;;;;;;;7.05;70.54;102681.94;4807793;29;20068;-70
2022/04/28 01:49:56;;;;;;;13.45;6.45;;;;;;;7.04;70.81;102674.00;4807743;29;20454;-70
2022/04/28 01:55:06;;;;;;;18.10;6.72;;;;;;;7.04;70.88;102679.38;4807779;29;20507;-72
2022/04/28 01:57:31;;;;;;;19.52;6.38;;;;;;;7.02;71.28;102676.84;4809972;29;20038;-70
2022/04/28 02:00:00;;;;;;;15.52;6.55;;;;;;;7.00;72.28;102678.00;4825732;29;20039;-71
2022/04/28 02:02:26;;;;;;;18.13;6.88;;;;;;;7.03;71.38;102681.22;4822979;29;20038;-70
2022/04/28 02:04:52;;;;;;;17.17;6.75;;;;;;;7.00;71.61;102683.38;4825221;29;20378;-69
2022/04/28 02:07:18;;;;;;;13.98;6.25;;;;;;;6.90;71.82;102678.94;4824883;29;20046;-71
2022/04/28 02:09:45;;;;;;;17.02;6.78;;;;;;;6.97;70.84;102686.38;4825582;29;20383;-70
2022/04/28 02:12:12;;;;;;;15.60;6.50;;;;;;;6.98;71.41;102691.63;4820903;29;20068;-73
2022/04/28 02:14:38;;;;;;;15.73;6.30;;;;;;;6.98;71.57;102691.63;4814615;29;20441;-70
2022/04/28 02:17:06;;;;;;;14.25;6.22;;;;;;;6.91;71.40;102688.72;4817164;29;20049;-70
2022/04/28 02:19:32;;;;;;;17.38;6.78;;;;;;;6.97;70.97;102683.69;4810743;29;20038;-72
2022/04/28 02:21:58;;;;;;;15.90;6.25;;;;;;;6.94;71.35;102684.00;4807198;29;20403;-71
2022/04/28 02:24:24;;;;;;;15.73;6.75;;;;;;;6.90;71.55;102689.72;4807009;29;20375;-69
2022/04/28 02:26:49;;;;;;;13.77;6.90;;;;;;;6.86;71.93;102682.09;4807465;29;20043;-73
2022/04/28 02:29:14;;;;;;;11.25;6.43;;;;;;;6.83;71.66;102691.31;4806584;29;20038;-69
2022/04/28 02:31:40;;;;;;;14.00;6.63;;;;;;;6.83;72.09;102677.88;4807070;29;20050;-74
2022/04/28 02:34:05;;;;;;;16.05;6.72;;;;;;;6.83;72.05;102677.88;4808072;29;20042;-71
2022/04/28 02:36:30;;;;;;;10.55;6.60;;;;;;;6.86;72.37;102680.25;4809228;29;21054;-72
2022/04/28 02:38:55;;;;;;;18.52;7.25;;;;;;;6.79;72.51;102679.16;4808416;29;20042;-70
2022/04/28 02:41:21;;;;;;;15.73;7.07;;;;;;;6.74;72.42;102681.50;4824784;29;20038;-70
2022/04/28 02:43:48;;;;;;;14.55;7.20;;;;;;;6.75;72.96;102680.50;4808797;29;20113;-70
2022/04/28 02:46:14;;;;;;;14.82;7.60;;;;;;;6.73;72.60;102683.34;4821419;29;20099;-71
2022/04/28 02:48:39;;;;;;;15.18;7.18;;;;;;;6.69;72.86;102673.88;4790951;29;20031;-69
2022/04/28 02:51:04;;;;;;;14.45;6.90;;;;;;;6.70;73.22;102677.41;4818101;29;20117;-72
2022/04/28 02:53:34;;;;;;;13.10;6.88;;;;;;;6.65;72.57;102677.88;4795046;29;20039;-71
2022/04/28 02:55:59;;;;;;;12.88;6.78;;;;;;;6.62;73.22;102666.59;4779834;29;20088;-72
2022/04/28 02:58:24;;;;;;;15.50;7.22;;;;;;;6.66;72.50;102671.50;4788627;29;20476;-72
2022/04/28 03:00:50;;;;;;;13.70;6.88;;;;;;;6.65;71.94;102679.72;4804547;29;20118;-71
2022/04/28 03:03:15;;;;;;;18.25;7.05;;;;;;;6.67;72.53;102673.22;4806003;29;20038;-70
2022/04/28 03:11:09;;;;;;;17.25;7.32;;;;;;;6.69;72.40;102676.56;4792808;29;20064;-69
2022/04/28 03:13:35;;;;;;;13.88;6.80;;;;;;;6.69;72.67;102686.50;4813973;29;20038;-69
2022/04/28 03:16:00;;;;;;;24.00;7.10;;;;;;;6.64;72.63;102680.72;4817709;29;20562;-70
2022/04/28 03:18:26;;;;;;;15.38;7.10;;;;;;;6.56;73.06;102676.94;4806107;29;20055;-72
2022/04/28 03:20:51;;;;;;;15.90;7.13;;;;;;;6.57;73.47;102678.66;4806492;29;20043;-73
2022/04/28 03:23:16;;;;;;;19.45;7.57;;;;;;;6.55;73.24;102680.66;4789831;29;20039;-70
2022/04/28 03:25:42;;;;;;;11.90;7.10;;;;;;;6.55;73.30;102675.28;4806136;29;20060;-70
2022/04/28 03:28:08;;;;;;;12.18;7.07;;;;;;;6.58;72.93;102676.78;4806189;29;20045;-71
2022/04/28 03:30:33;;;;;;;18.95;8.05;;;;;;;6.59;72.71;102666.91;4789308;29;20031;-68
2022/04/28 03:32:59;;;;;;;19.95;7.82;;;;;;;6.63;72.74;102681.72;4805499;29;20041;-72
2022/04/28 03:35:24;;;;;;;18.85;8.10;;;;;;;6.56;72.99;102676.94;4805549;29;20042;-71
2022/04/28 03:37:50;;;;;;;18.60;7.47;;;;;;;6.54;72.94;102673.56;4806946;29;20063;-70
2022/04/28 03:40:16;;;;;;;20.98;7.35;;;;;;;6.53;73.11;102681.78;4805937;29;20034;-69
2022/04/28 03:42:42;;;;;;;12.35;7.28;;;;;;;6.50;73.45;102674.88;4805818;29;20039;-69
2022/04/28 03:45:07;;;;;;;16.13;7.75;;;;;;;6.48;73.35;102678.72;4805469;29;20039;-68
2022/04/28 03:47:33;;;;;;;17.90;8.02;;;;;;;6.45;73.63;102679.88;4789382;29;20046;-71
2022/04/28 03:49:59;;;;;;;14.70;7.13;;;;;;;6.43;73.53;102673.81;4805682;29;20043;-72
2022/04/28 03:52:24;;;;;;;14.93;7.70;;;;;;;6.47;73.90;102682.41;4799424;29;20043;-69
2022/04/28 03:54:50;;;;;;;16.77;8.07;;;;;;;6.42;73.87;102688.25;4824064;29;20038;-72
2022/04/28 03:57:15;;;;;;;16.80;8.07;;;;;;;6.35;74.09;102692.53;4814461;29;20034;-73
2022/04/28 03:59:40;;;;;;;15.88;7.68;;;;;;;6.37;74.21;102690.53;4805460;29;20035;-72
2022/04/28 04:02:06;;;;;;;21.60;8.48;;;;;;;6.37;73.40;102688.72;4803053;29;20031;-72
2022/04/28 04:04:31;;;;;;;19.77;7.95;;;;;;;6.36;74.06;102691.53;4789045;29;20387;-72
2022/04/28 04:06:56;;;;;;;18.55;8.65;;;;;;;6.36;73.97;102688.84;4788885;29;20068;-69
2022/04/28 04:09:23;;;;;;;18.67;8.00;;;;;;;6.38;74.19;102694.91;4793098;29;20499;-71
2022/04/28 04:11:54;;;;;;;22.73;8.75;;;;;;;6.34;73.86;102696.22;4821888;29;20042;-73
2022/04/28 04:14:21;;;;;;;21.58;9.90;;;;;;;6.33;74.36;102691.84;4805407;29;20038;-72
2022/04/28 04:16:47;;;;;;;20.23;9.35;;;;;;;6.26;73.58;102688.06;4807343;29;20436;-70
2022/04/28 04:19:12;;;;;;;17.60;8.68;;;;;;;6.23;73.75;102691.06;4822940;29;20046;-72
2022/04/28 04:21:38;;;;;;;20.17;8.90;;;;;;;6.16;74.12;102694.34;4807026;29;20483;-70
2022/04/28 04:24:04;;;;;;;18.17;8.85;;;;;;;6.07;75.16;102691.72;4806817;29;20423;-70
2022/04/28 04:26:30;;;;;;;16.10;9.05;;;;;;;6.07;75.60;102697.94;4804594;29;20031;-68
2022/04/28 04:28:57;;;;;;;20.58;9.23;;;;;;;6.05;74.90;102699.09;4793877;29;20037;-72
2022/04/28 04:34:17;;;;;;;18.23;9.18;;;;;;;6.12;75.60;102700.19;4801958;29;20038;-70
2022/04/28 04:36:54;;;;;;;19.83;9.82;;;;;;;6.10;75.28;102707.53;4788586;29;20413;-70
2022/04/28 04:39:33;;;;;;;20.55;8.90;;;;;;;6.07;75.63;102706.00;4789367;29;20026;-69
2022/04/28 04:42:13;;;;;;;20.60;9.75;;;;;;;6.10;74.98;102708.41;4788662;29;20426;-71
2022/04/28 04:44:53;;;;;;;15.13;9.57;;;;;;;6.08;74.92;102707.69;4792016;29;20034;-72
2022/04/28 04:47:31;;;;;;;18.48;9.18;;;;;;;6.10;75.60;102716.47;4795609;29;20503;-71
2022/04/28 04:50:10;;;;;;;17.80;9.10;;;;;;;6.10;74.84;102713.78;4810294;29;20479;-71
2022/04/28 04:52:48;;;;;;;18.40;9.43;;;;;;;6.08;75.16;102721.13;4809613;29;20521;-71
2022/04/28 04:55:23;;;;;;;20.73;9.20;;;;;;;6.14;75.01;102715.16;4796107;29;20113;-70
2022/04/28 04:57:58;;;;;;;20.42;9.80;;;;;;;6.14;74.98;102715.16;4797066;29;20035;-70
2022/04/28 05:00:31;;;;;;;19.25;9.25;;;;;;;6.10;75.59;102724.53;4790566;29;20517;-71
2022/04/28 05:03:05;;;;;;;19.02;10.00;;;;;;;6.10;75.92;102723.66;4795261;29;20107;-71
2022/04/28 05:05:38;;;;;;;17.00;9.02;;;;;;;6.13;75.13;102724.22;4825715;29;20034;-72
2022/04/28 05:08:12;;;;;;;20.40;9.73;;;;;;;6.17;74.47;102728.28;4806755;29;20091;-69
2022/04/28 05:10:43;;;;;;;23.92;9.57;;;;;;;6.19;74.88;102734.38;4809896;29;20395;-69
2022/04/28 05:13:16;;;;;;;17.73;9.30;;;;;;;6.24;75.23;102736.63;4809714;29;20376;-68
2022/04/28 05:15:49;;;;;;;17.67;9.98;;;;;;;6.23;75.07;102744.84;4809784;29;20030;-71
2022/04/28 05:18:21;;;;;;;18.52;9.68;;;;;;;6.30;74.42;102745.94;4809171;29;20065;-70
2022/04/28 05:20:56;;;;;;;18.92;10.15;;;;;;;6.32;75.04;102752.00;4809591;29;20049;-71
2022/04/28 05:23:29;;;;;;;22.08;10.00;;;;;;;6.38;75.44;102748.69;4800607;29;20070;-68
2022/04/28 05:26:01;;;;;;;21.75;9.50;;;;;;;6.37;74.58;102747.00;4807090;29;20467;-69
2022/04/28 05:28:33;;;;;;;16.98;9.73;;;;;;;6.42;75.42;102755.47;4797399;29;20042;-72
2022/04/28 05:31:05;;;;;;;27.75;11.50;;;;;;;6.42;74.68;102749.25;4791363;29;20038;-71
2022/04/28 05:33:41;;;;;;;22.00;10.85;;;;;;;6.48;75.33;102754.88;4814225;29;20041;-70
2022/04/28 05:36:14;;;;;;;21.40;9.85;;;;;;;6.44;75.07;102756.16;4801056;29;21597;-69
2022/04/28 05:38:46;;;;;;;22.20;9.90;;;;;;;6.47;75.73;102763.94;4791170;29;20038;-70
2022/04/28 05:41:20;;;;;;;21.60;10.60;;;;;;;6.47;75.39;102761.25;4791397;29;20070;-70
2022/04/28 05:46:47;;;;;;;18.67;10.07;;;;;;;6.43;75.57;102765.25;4789443;30;20043;-70
2022/04/28 05:49:25;;;;;;;26.10;10.90;;;;;;;6.46;75.53;102773.00;4774392;29;20035;-73
2022/04/28 05:51:58;;;;;;;23.65;11.32;;;;;;;6.48;75.72;102771.00;4791233;29;20039;-71
2022/04/28 05:54:25;;;;;;;21.13;10.93;;;;;;;6.50;76.02;102774.38;4807990;29;20034;-70
2022/04/28 05:56:51;;;;;;;19.58;10.82;;;;;;;6.59;75.67;102783.41;4825762;29;20051;-74
2022/04/28 05:59:18;;;;;;;19.63;11.18;;;;;;;6.61;76.35;102781.41;4811762;29;20102;-76
2022/04/28 06:01:43;;;;;;;22.45;11.60;;;;;;;6.66;75.91;102786.34;4805108;29;20043;-69
2022/04/28 06:04:09;;;;;;;21.98;10.95;;;;;;;6.72;75.99;102788.44;4807721;29;20043;-74
2022/04/28 06:06:35;;;;;;;22.67;11.57;;;;;;;6.77;75.96;102796.03;4790843;29;20117;-70
2022/04/28 06:09:00;;;;;;;23.67;11.85;;;;;;;6.78;75.85;102793.22;4810556;29;20035;-72
2022/04/28 06:11:26;;;;;;;23.75;11.88;;;;;;;6.83;75.90;102795.44;4807404;29;20092;-70
2022/04/28 06:13:51;;;;;;;23.70;11.23;;;;;;;6.86;75.79;102800.50;4808001;29;20416;-70
2022/04/28 06:16:16;;;;;;;17.83;11.27;;;;;;;6.87;75.77;102805.75;4814273;29;20042;-71
2022/04/28 06:18:42;;;;;;;21.38;11.68;;;;;;;6.94;76.18;102808.66;4807123;29;20058;-74
2022/04/28 06:21:07;;;;;;;23.45;12.00;;;;;;;7.00;75.57;102809.91;4807207;29;20043;-73
2022/04/28 06:23:32;;;;;;;25.40;11.52;;;;;;;7.05;75.74;102808.44;4807087;29;20041;-70
2022/04/28 06:25:58;;;;;;;22.65;11.40;;;;;;;7.14;75.99;102808.50;4807222;29;20035;-70
2022/04/28 06:28:23;;;;;;;28.33;11.68;;;;;;;7.22;75.39;102809.44;4803440;29;20061;-70
2022/04/28 06:30:48;;;;;;;22.65;11.63;;;;;;;7.26;74.89;102821.59;4814297;29;20487;-72
2022/04/28 06:33:14;;;;;;;25.88;11.82;;;;;;;7.34;74.90;102811.91;4815512;29;20039;-70
2022/04/28 06:35:39;;;;;;;26.55;11.60;;;;;;;7.38;75.09;102815.97;4824491;29;20107;-71
2022/04/28 06:38:04;;;;;;;22.00;11.20;;;;;;;7.38;75.68;102811.44;4808682;29;20060;-71
2022/04/28 06:40:30;;;;;;;20.33;11.25;;;;;;;7.46;74.54;102816.03;4808127;29;20034;-70
2022/04/28 06:42:55;;;;;;;25.38;12.63;;;;;;;7.42;75.12;102817.34;4825054;29;20471;-70
2022/04/28 06:45:22;;;;;;;22.70;12.00;;;;;;;7.50;75.52;102825.50;4824855;29;20057;-71
2022/04/28 06:47:47;;;;;;;20.27;11.15;;;;;;;7.57;74.76;102826.56;4824760;29;20040;-71
2022/04/28 06:50:12;;;;;;;20.98;12.23;;;;;;;7.64;74.11;102816.03;4824930;29;20049;-70
2022/04/28 06:52:39;;;;;;;24.73;11.43;;;;;;;7.74;73.85;102821.28;4824755;29;20047;-71
2022/04/28 06:55:06;;;;;;;23.73;11.10;;;;;;;7.80;74.05;102816.13;4824915;29;20541;-70
2022/04/28 06:57:31;;;;;;;19.40;11.25;;;;;;;7.87;73.86;102820.91;4825033;29;20034;-71
2022/04/28 06:59:57;;;;;;;21.92;10.50;;;;;;;7.95;73.44;102826.31;4824860;29;20491;-70
2022/04/28 07:02:22;;;;;;;19.58;10.48;;;;;;;8.09;73.09;102830.28;4806141;29;20480;-71
2022/04/28 07:04:48;;;;;;;23.75;11.55;;;;;;;8.16;72.98;102826.78;4824320;29;20107;-70
2022/04/28 07:07:14;;;;;;;16.63;10.05;;;;;;;8.24;72.40;102830.53;4824513;29;20049;-71
2022/04/28 07:09:40;;;;;;;18.83;10.55;;;;;;;8.35;72.04;102843.75;4824141;29;20036;-72
2022/04/28 07:12:05;;;;;;;23.27;10.02;;;;;;;8.41;71.54;102839.53;4824662;29;20383;-70
2022/04/28 07:14:31;;;;;;;23.85;10.93;;;;;;;8.46;71.41;102843.47;4824381;29;20030;-72
2022/04/28 07:16:56;;;;;;;24.83;11.15;;;;;;;8.46;70.88;102848.03;4824842;29;20034;-68
2022/04/28 07:19:21;;;;;;;20.95;10.48;;;;;;;8.46;70.56;102845.34;4824043;29;20050;-72
2022/04/28 07:21:46;;;;;;;22.73;10.90;;;;;;;8.55;70.95;102851.63;4824293;29;20483;-71
2022/04/28 07:24:12;;;;;;;21.42;10.18;;;;;;;8.66;71.29;102854.84;4824717;29;20037;-71
2022/04/28 07:26:37;;;;;;;22.45;10.10;;;;;;;8.72;70.25;102852.53;4824196;29;20050;-71
2022/04/28 07:29:05;;;;;;;22.35;10.82;;;;;;;8.79;70.01;102853.56;4824332;29;20042;-69
2022/04/28 07:31:30;;;;;;;25.58;10.45;;;;;;;8.82;69.59;102855.94;4824099;29;20596;-71
2022/04/28 07:33:56;;;;;;;23.05;9.80;;;;;;;8.86;70.19;102850.06;4824313;29;20045;-71
2022/04/28 07:36:21;;;;;;;23.02;10.00;;;;;;;8.89;69.76;102851.56;4824299;29;20038;-71
2022/04/28 07:38:46;;;;;;;22.42;9.95;;;;;;;8.94;69.14;102868.13;4824056;29;20573;-71
2022/04/28 07:41:13;;;;;;;22.33;10.65;;;;;;;8.96;68.84;102866.09;4824249;29;20039;-72
2022/04/28 07:43:38;;;;;;;20.02;9.95;;;;;;;9.02;68.84;102868.13;4823942;29;20083;-70
2022/04/28 07:46:03;;;;;;;22.38;11.07;;;;;;;9.11;67.96;102873.56;4823846;29;20062;-69
2022/04/28 07:48:29;;;;;;;20.38;9.65;;;;;;;9.16;68.35;102868.50;4824100;29;20038;-69
2022/04/28 07:50:54;;;;;;;21.25;10.18;;;;;;;9.24;68.44;102873.94;4823839;29;20030;-69
2022/04/28 07:53:20;;;;;;;25.60;10.18;;;;;;;9.26;67.20;102871.06;4824090;29;20034;-69
2022/04/28 07:56:10;;;;;;;20.02;9.75;;;;;;;9.31;68.38;102874.94;4823797;29;20464;-69
2022/04/28 07:58:31;;;;;;;20.92;9.82;;;;;;;9.40;68.54;102876.66;4823560;29;20050;-71
2022/04/28 08:00:57;;;;;;;21.58;10.07;;;;;;;9.47;67.31;102876.81;4821698;29;20041;-71
2022/04/28 08:03:22;;;;;;;19.42;9.75;;;;;;;9.51;66.89;102875.50;4823910;29;20141;-69
2022/04/28 08:05:48;;;;;;;21.75;9.48;;;;;;;9.58;68.11;102884.59;4823545;29;20038;-71
2022/04/28 08:08:13;;;;;;;17.70;9.00;;;;;;;9.71;65.36;102885.97;4823580;29;20037;-70
2022/04/28 08:10:38;;;;;;;21.95;10.20;;;;;;;9.71;66.19;102885.97;4823297;29;20463;-70
2022/04/28 08:13:04;;;;;;;20.35;9.57;;;;;;;9.75;66.00;102885.47;4823839;29;20360;-70
2022/04/28 08:15:30;;;;;;;21.92;10.02;;;;;;;9.86;66.35;102892.38;4792689;29;20046;-72
2022/04/28 08:17:55;;;;;;;15.80;8.68;;;;;;;9.93;65.59;102898.81;4803283;29;20055;-69
2022/04/28 08:20:20;;;;;;;19.92;8.75;;;;;;;9.93;64.28;102887.97;4803957;29;20042;-70
2022/04/28 08:22:45;;;;;;;18.90;8.75;;;;;;;9.97;64.86;102901.16;4805503;29;20039;-71
2022/04/28 08:25:11;;;;;;;21.83;9.82;;;;;;;10.03;65.16;102901.31;4805456;29;20027;-70
2022/04/28 08:27:36;;;;;;;17.95;8.85;;;;;;;10.04;64.55;102889.47;4804791;29;20388;-69
2022/04/28 08:30:02;;;;;;;19.27;9.45;;;;;;;10.13;64.61;102903.00;4805381;29;20126;-71
2022/04/28 08:32:27;;;;;;;21.45;9.88;;;;;;;10.18;64.43;102903.34;4805297;29;20079;-69
2022/04/28 08:34:52;;;;;;;21.05;9.77;;;;;;;10.17;63.42;102902.47;4804947;29;20488;-70
2022/04/28 08:37:18;;;;;;;22.35;9.55;;;;;;;10.17;63.22;102904.34;4804263;29;20045;-70
2022/04/28 08:39:43;;;;;;;17.27;9.13;;;;;;;10.19;63.08;102905.00;4805118;29;20039;-69
2022/04/28 08:42:12;;;;;;;20.58;9.10;;;;;;;10.22;63.32;102913.63;4803991;29;20038;-70
2022/04/28 08:44:38;;;;;;;22.63;9.07;;;;;;;10.25;62.56;102915.13;4805112;29;20034;-70
2022/04/28 08:47:03;;;;;;;20.48;9.23;;;;;;;10.35;63.28;102910.41;4804865;29;20027;-69
2022/04/28 08:49:31;;;;;;;22.15;9.73;;;;;;;10.40;63.88;102905.34;4805481;29;20450;-69
2022/04/28 08:51:58;;;;;;;22.08;9.30;;;;;;;10.49;62.99;102905.31;4804689;29;20399;-70
2022/04/28 08:54:26;;;;;;;25.70;9.40;;;;;;;10.52;62.78;102910.38;4805189;29;20088;-69
2022/04/28 08:56:53;;;;;;;19.50;8.80;;;;;;;10.57;62.55;102897.19;4804667;29;20102;-70
2022/04/28 08:59:20;;;;;;;22.75;9.38;;;;;;;10.66;63.02;102901.53;4804850;29;20046;-70
2022/04/28 09:01:45;;;;;;;23.95;10.45;;;;;;;10.70;62.48;102907.44;4802630;29;20055;-70
2022/04/28 09:04:11;;;;;;;22.83;10.02;;;;;;;10.86;63.34;102906.53;4805114;29;20077;-70
2022/04/28 09:06:41;;;;;;;22.38;10.02;;;;;;;10.90;62.86;102910.56;4804677;29;20042;-69
2022/04/28 09:09:12;;;;;;;20.67;9.43;;;;;;;11.03;62.08;102913.53;4804811;29;20038;-70
2022/04/28 09:11:39;;;;;;;20.20;9.33;;;;;;;11.08;61.59;102899.47;4804898;29;20042;-71
2022/04/28 09:14:17;;;;;;;18.95;9.55;;;;;;;11.23;61.92;102907.69;4805093;29;20126;-70
2022/04/28 09:17:04;;;;;;;17.98;10.23;;;;;;;11.24;61.44;102898.53;4803504;29;20540;-70
2022/04/28 09:19:34;;;;;;;24.20;10.10;;;;;;;11.24;60.23;102903.94;4803873;29;20047;-70
2022/04/28 09:22:01;;;;;;;22.77;9.77;;;;;;;11.17;59.44;102896.53;4803687;29;20047;-71
2022/04/28 09:24:27;;;;;;;21.08;9.98;;;;;;;11.16;60.18;102897.56;4803694;29;20046;-69
2022/04/28 09:26:54;;;;;;;18.90;9.93;;;;;;;11.17;58.95;102896.53;4804629;29;20039;-69
2022/04/28 09:29:22;;;;;;;18.65;9.90;;;;;;;11.21;59.22;102883.47;4804025;29;20123;-70
2022/04/28 09:31:49;;;;;;;21.20;10.52;;;;;;;11.26;59.05;102889.22;4807660;29;20034;-70
2022/04/28 09:34:16;;;;;;;21.88;10.52;;;;;;;11.36;59.41;102899.81;4808099;29;20038;-69
2022/04/28 09:36:43;;;;;;;18.25;9.88;;;;;;;11.38;57.80;102891.50;4806648;29;20038;-71
2022/04/28 09:39:12;;;;;;;16.17;9.48;;;;;;;11.43;58.01;102889.06;4807781;29;20078;-70
2022/04/28 09:44:23;;;;;;;19.25;10.55;;;;;;;11.53;57.89;102890.53;4808021;29;20068;-70
2022/04/28 09:46:49;;;;;;;17.25;9.88;;;;;;;11.56;59.11;102885.75;4807360;29;20464;-70
2022/04/28 09:49:17;;;;;;;16.23;9.70;;;;;;;11.65;57.69;102890.94;4807939;29;20133;-71
2022/04/28 09:51:44;;;;;;;19.33;9.57;;;;;;;11.79;57.52;102894.72;4807652;29;20122;-69
2022/04/28 09:54:11;;;;;;;17.85;9.52;;;;;;;11.82;56.96;102888.94;4807783;29;20057;-71
2022/04/28 09:56:39;;;;;;;19.88;9.82;;;;;;;11.88;57.58;102893.63;4807683;29;20035;-69
2022/04/28 09:59:05;;;;;;;20.67;9.50;;;;;;;11.81;55.26;102881.00;4806578;29;20123;-71
2022/04/28 10:01:34;;;;;;;18.38;8.93;;;;;;;11.89;57.34;102880.91;4804200;29;20045;-70
2022/04/28 10:04:00;;;;;;;17.67;8.95;;;;;;;11.99;56.68;102880.69;4807177;29;20043;-71
2022/04/28 10:06:26;;;;;;;21.02;9.45;;;;;;;12.05;55.61;102880.78;4807425;29;20043;-71
2022/04/28 10:08:52;;;;;;;18.55;8.60;;;;;;;12.10;56.25;102872.06;4807215;29;20039;-71
2022/04/28 10:11:24;;;;;;;15.40;8.52;;;;;;;12.20;56.71;102878.06;4807449;29;20042;-70
2022/04/28 10:13:51;;;;;;;16.23;9.10;;;;;;;12.28;56.14;102876.31;4805987;29;20175;-71
2022/04/28 10:16:19;;;;;;;16.52;8.57;;;;;;;12.31;55.83;102874.06;4807391;29;20104;-70
2022/04/28 10:19:28;;;;;;;20.10;8.52;;;;;;;12.40;56.96;102866.66;4819546;29;20057;-70
2022/04/28 10:22:11;;;;;;;14.70;8.82;;;;;;;12.46;55.70;102865.91;4733311;30;20047;-69
2022/04/28 10:32:58;;;;;;;17.52;8.93;;;;;;;12.58;52.66;102875.25;4811258;29;20054;-70
2022/04/28 10:35:46;;;;;;;17.42;8.98;;;;;;;12.68;53.28;102868.69;4825169;29;20047;-70
2022/04/28 10:38:15;;;;;;;23.80;8.20;;;;;;;12.71;54.35;102860.16;4824909;29;20038;-70
2022/04/28 10:40:43;;;;;;;17.38;8.50;;;;;;;12.83;53.64;102864.09;4824794;29;20034;-69
2022/04/28 10:43:24;;;;;;;15.73;8.32;;;;;;;12.92;54.89;102860.22;4808867;29;20062;-70
2022/04/28 10:45:52;;;;;;;14.80;8.30;;;;;;;12.97;52.92;102856.06;4824717;29;20038;-71
2022/04/28 10:48:31;;;;;;;17.77;8.45;;;;;;;13.05;54.06;102853.25;4825001;29;20034;-71
2022/04/28 10:51:20;;;;;;;15.45;8.85;;;;;;;13.09;54.12;102854.56;4824706;29;20471;-71
2022/04/28 10:54:03;;;;;;;15.15;8.57;;;;;;;13.21;54.81;102846.72;4824779;29;20050;-69
2022/04/28 10:56:52;;;;;;;19.25;9.75;;;;;;;13.29;53.65;102852.88;4824870;29;20087;-70
2022/04/28 10:59:34;;;;;;;18.73;9.95;;;;;;;13.44;53.75;102852.00;4824934;29;20031;-70
2022/04/28 11:02:15;;;;;;;;;;;;;;;13.50;54.47;102848.50;4822685;29;20475;-69
2022/04/28 11:04:43;;;;;;;17.08;8.90;;;;;;;13.50;51.77;102850.34;4808253;29;20346;-70
2022/04/28 11:07:11;;;;;;;15.52;7.95;;;;;;;13.56;52.52;102847.72;4824322;29;20048;-70
2022/04/28 11:09:39;;;;;;;16.85;8.15;;;;;;;13.64;52.55;102844.84;4824589;29;20058;-69
2022/04/28 11:12:11;;;;;;;16.77;8.70;;;;;;;13.62;51.56;102837.94;4824464;29;20027;-72
2022/04/28 11:14:48;;;;;;;23.27;8.52;;;;;;;13.77;52.50;102841.41;4824566;29;20474;-70
2022/04/28 11:17:16;;;;;;;19.13;8.95;;;;;;;13.90;52.34;102839.81;4824278;29;20038;-71
2022/04/28 11:19:43;;;;;;;15.13;8.98;;;;;;;13.94;50.97;102839.22;4824565;29;20042;-71
2022/04/28 11:22:11;;;;;;;16.50;8.45;;;;;;;14.07;52.39;102840.31;4823768;29;20559;-71
2022/04/28 11:24:40;;;;;;;16.40;8.68;;;;;;;14.12;51.54;102833.25;4807979;29;20121;-70
2022/04/28 11:27:05;;;;;;;17.17;8.40;;;;;;;14.26;52.37;102823.28;4824120;29;20038;-71
2022/04/28 11:29:31;;;;;;;14.52;9.02;;;;;;;14.36;50.90;102829.19;4824423;29;20467;-70
2022/04/28 11:31:59;;;;;;;21.00;9.25;;;;;;;14.41;50.51;102830.47;4824302;29;20039;-70
2022/04/28 11:34:24;;;;;;;18.20;9.90;;;;;;;14.40;48.81;102829.63;4824337;29;20034;-70
2022/04/28 11:36:49;;;;;;;18.35;9.18;;;;;;;14.28;48.98;102829.38;4823766;29;20476;-71
2022/04/28 11:39:14;;;;;;;17.85;9.50;;;;;;;14.26;49.20;102831.44;4824202;29;20045;-71
2022/04/28 11:41:42;;;;;;;16.17;9.82;;;;;;;14.31;50.14;102826.25;4824219;29;20034;-70
2022/04/28 11:44:10;;;;;;;14.65;9.35;;;;;;;14.32;49.32;102833.34;4824001;29;20034;-71
2022/04/28 11:46:41;;;;;;;16.38;8.77;;;;;;;14.48;50.24;102826.75;4808022;29;20034;-71
2022/04/28 11:49:07;;;;;;;18.52;10.10;;;;;;;14.52;48.10;102825.31;4824195;29;20038;-70
2022/04/28 11:51:33;;;;;;;20.90;9.98;;;;;;;14.57;48.10;102835.59;4823529;29;20035;-71
2022/04/28 11:53:59;;;;;;;18.33;9.13;;;;;;;14.58;47.77;102826.34;4823391;29;20117;-70